createdAt,value
2019-03-31T00:00:08.164Z,10.70
2019-03-31T00:02:39.361Z,10.70
2019-03-31T00:05:08.794Z,10.60
2019-03-31T00:07:38.121Z,10.50
2019-03-31T00:10:08.426Z,10.60
2019-03-31T00:12:37.762Z,10.60
2019-03-31T00:15:08.210Z,10.60
2019-03-31T00:17:37.504Z,10.70
2019-03-31T00:20:08.312Z,10.50
2019-03-31T00:22:37.655Z,10.50
2019-03-31T00:25:07.113Z,10.40
2019-03-31T00:27:37.376Z,10.40
2019-03-31T00:30:06.890Z,10.30
2019-03-31T00:32:37.277Z,10.30
2019-03-31T00:35:06.775Z,10.30
2019-03-31T00:37:37.111Z,10.20
2019-03-31T00:40:07.309Z,10.20
2019-03-31T00:42:36.611Z,10.20
2019-03-31T00:45:09.408Z,10.30
2019-03-31T00:47:38.707Z,10.40
2019-03-31T00:50:08.409Z,10.30
2019-03-31T00:52:37.711Z,10.10
2019-03-31T00:55:07.483Z,10.00
2019-03-31T00:57:36.799Z,10.00
2019-03-31T01:00:11.059Z,10.00
2019-03-31T01:02:42.314Z,10.10
2019-03-31T01:05:11.619Z,10.10
2019-03-31T01:07:41.110Z,10.00
2019-03-31T01:10:11.159Z,9.80
2019-03-31T01:12:40.616Z,9.80
2019-03-31T01:15:14.654Z,9.80
2019-03-31T01:17:44.329Z,9.70
2019-03-31T01:20:13.639Z,9.60
2019-03-31T01:22:43.818Z,9.70
2019-03-31T01:25:13.571Z,9.80
2019-03-31T01:27:42.859Z,9.90
2019-03-31T01:30:15.265Z,9.80
2019-03-31T01:32:44.933Z,9.70
2019-03-31T01:35:14.611Z,9.70
2019-03-31T01:37:43.891Z,9.70
2019-03-31T01:40:13.459Z,9.80
2019-03-31T01:42:42.759Z,9.60
2019-03-31T01:45:12.473Z,9.50
2019-03-31T01:47:41.780Z,9.60
2019-03-31T01:50:14.563Z,9.50
2019-03-31T01:52:43.875Z,9.40
2019-03-31T01:55:13.313Z,9.30
2019-03-31T01:57:42.610Z,9.30
2019-03-31T02:00:19.903Z,9.20
2019-03-31T02:02:49.207Z,9.10
2019-03-31T02:05:18.518Z,9.10
2019-03-31T02:07:47.811Z,9.10
2019-03-31T02:10:17.127Z,9.20
2019-03-31T02:12:46.480Z,9.30
2019-03-31T02:15:15.787Z,9.30
2019-03-31T02:17:45.087Z,9.20
2019-03-31T02:20:14.410Z,9.30
2019-03-31T02:22:43.811Z,9.20
2019-03-31T02:25:13.133Z,9.10
2019-03-31T02:27:42.542Z,9.00
2019-03-31T02:30:12.353Z,9.00
2019-03-31T02:32:44.509Z,8.90
2019-03-31T02:35:14.083Z,8.90
2019-03-31T02:37:43.373Z,9.00
2019-03-31T02:40:12.877Z,9.10
2019-03-31T02:42:43.705Z,9.20
2019-03-31T02:45:13.309Z,9.10
2019-03-31T02:47:42.640Z,9.10
2019-03-31T02:50:15.010Z,8.80
2019-03-31T02:52:44.324Z,8.80
2019-03-31T02:55:13.694Z,8.80
2019-03-31T02:57:43.706Z,8.70
2019-03-31T03:00:13.282Z,8.70
2019-03-31T03:02:42.932Z,8.70
2019-03-31T03:05:19.421Z,8.80
2019-03-31T03:07:46.389Z,8.80
2019-03-31T03:10:15.787Z,8.60
2019-03-31T03:12:47.117Z,8.70
2019-03-31T03:15:19.503Z,8.70
2019-03-31T03:17:48.814Z,8.80
2019-03-31T03:20:18.292Z,8.60
2019-03-31T03:22:47.618Z,8.50
2019-03-31T03:25:16.969Z,8.50
2019-03-31T03:27:46.267Z,8.60
2019-03-31T03:30:15.662Z,8.60
2019-03-31T03:33:11.987Z,8.60
2019-03-31T03:35:16.317Z,8.50
2019-03-31T03:37:45.759Z,8.40
2019-03-31T03:40:15.056Z,8.50
2019-03-31T03:42:44.376Z,8.50
2019-03-31T03:45:13.754Z,8.50
2019-03-31T03:47:43.060Z,8.40
2019-03-31T03:50:13.444Z,8.30
2019-03-31T03:55:38.683Z,8.40
2019-03-31T03:58:07.999Z,8.30
2019-03-31T04:00:37.338Z,8.20
2019-03-31T04:03:06.654Z,8.20
2019-03-31T04:05:35.967Z,8.20
2019-03-31T04:08:05.284Z,8.30
2019-03-31T04:10:46.492Z,8.30
2019-03-31T04:13:15.915Z,8.20
2019-03-31T04:15:45.270Z,8.30
2019-03-31T04:18:14.586Z,8.20
2019-03-31T04:20:43.905Z,8.00
2019-03-31T04:23:13.217Z,7.90
2019-03-31T04:25:43.622Z,7.90
2019-03-31T04:28:12.934Z,8.00
2019-03-31T04:30:42.312Z,8.10
2019-03-31T04:33:11.632Z,8.10
2019-03-31T04:35:41.011Z,8.10
2019-03-31T04:38:10.339Z,8.10
2019-03-31T04:40:39.635Z,8.00
2019-03-31T04:43:08.933Z,7.90
2019-03-31T04:45:38.230Z,8.00
2019-03-31T04:48:07.578Z,7.90
2019-03-31T04:50:36.885Z,8.00
2019-03-31T04:53:06.206Z,8.00
2019-03-31T04:55:35.510Z,8.00
2019-03-31T04:58:04.822Z,7.90
2019-03-31T05:00:34.228Z,7.90
2019-03-31T05:03:03.536Z,7.80
2019-03-31T05:05:32.936Z,7.80
2019-03-31T05:08:02.249Z,7.80
2019-03-31T05:10:31.627Z,7.70
2019-03-31T05:13:00.918Z,7.60
2019-03-31T05:15:30.220Z,7.60
2019-03-31T05:17:59.530Z,7.70
2019-03-31T05:20:28.973Z,7.80
2019-03-31T05:22:58.269Z,7.80
2019-03-31T05:25:27.622Z,7.60
2019-03-31T05:27:56.936Z,7.60
2019-03-31T05:30:26.226Z,7.70
2019-03-31T05:32:55.538Z,7.70
2019-03-31T05:35:27.112Z,7.80
2019-03-31T05:37:55.856Z,7.70
2019-03-31T05:40:25.240Z,7.70
2019-03-31T05:42:54.672Z,7.60
2019-03-31T05:45:23.972Z,7.50
2019-03-31T05:47:53.282Z,7.50
2019-03-31T05:50:22.607Z,7.70
2019-03-31T05:52:52.066Z,7.80
2019-03-31T05:55:21.375Z,7.70
2019-03-31T05:57:50.690Z,7.60
2019-03-31T06:00:31.994Z,7.80
2019-03-31T06:03:01.304Z,7.90
2019-03-31T06:05:30.600Z,7.80
2019-03-31T06:07:59.897Z,8.00
2019-03-31T06:10:29.192Z,8.00
2019-03-31T06:12:58.543Z,8.00
2019-03-31T06:15:27.820Z,8.10
2019-03-31T06:17:57.130Z,8.30
2019-03-31T06:20:26.440Z,8.30
2019-03-31T06:22:55.742Z,8.20
2019-03-31T06:25:25.039Z,8.20
2019-03-31T06:27:54.330Z,8.30
2019-03-31T06:30:23.691Z,8.20
2019-03-31T06:32:55.451Z,8.30
2019-03-31T06:35:23.999Z,8.40
2019-03-31T06:37:53.306Z,8.50
2019-03-31T06:40:22.600Z,8.50
2019-03-31T06:42:52.302Z,8.60
2019-03-31T06:45:21.603Z,8.70
2019-03-31T06:47:50.910Z,8.80
2019-03-31T06:50:20.511Z,8.80
2019-03-31T06:52:49.826Z,8.80
2019-03-31T06:55:19.130Z,9.00
2019-03-31T06:57:48.617Z,9.10
2019-03-31T07:00:19.163Z,9.20
2019-03-31T07:02:48.472Z,9.10
2019-03-31T07:05:17.770Z,9.20
2019-03-31T07:07:47.066Z,9.20
2019-03-31T07:10:16.425Z,9.30
2019-03-31T07:12:45.821Z,9.50
2019-03-31T07:15:15.451Z,9.50
2019-03-31T07:17:44.986Z,9.60
2019-03-31T07:20:15.854Z,9.80
2019-03-31T07:22:45.262Z,9.90
2019-03-31T07:25:15.030Z,10.00
2019-03-31T07:27:44.318Z,10.20
2019-03-31T07:30:20.106Z,10.30
2019-03-31T07:32:49.424Z,10.40
2019-03-31T07:35:19.141Z,10.50
2019-03-31T07:37:48.614Z,10.60
2019-03-31T07:40:20.127Z,10.70
2019-03-31T07:42:52.633Z,10.80
2019-03-31T07:45:20.855Z,10.90
2019-03-31T07:47:50.155Z,11.10
2019-03-31T07:50:19.995Z,11.20
2019-03-31T07:52:49.305Z,11.30
2019-03-31T07:55:18.950Z,11.30
2019-03-31T07:57:48.278Z,11.30
2019-03-31T08:00:20.099Z,11.50
2019-03-31T08:02:49.458Z,11.60
2019-03-31T08:05:32.383Z,11.90
2019-03-31T08:07:50.387Z,11.90
2019-03-31T08:10:20.045Z,12.10
2019-03-31T08:12:49.449Z,12.00
2019-03-31T08:15:18.940Z,12.00
2019-03-31T08:17:48.244Z,12.10
2019-03-31T08:20:20.078Z,12.30
2019-03-31T08:22:49.386Z,12.50
2019-03-31T08:25:19.168Z,12.60
2019-03-31T08:27:48.510Z,12.70
2019-03-31T08:30:18.279Z,12.90
2019-03-31T08:32:47.554Z,13.10
2019-03-31T08:35:29.306Z,13.20
2019-03-31T08:37:58.590Z,13.30
2019-03-31T08:40:27.933Z,13.50
2019-03-31T08:42:57.245Z,13.60
2019-03-31T08:45:30.384Z,13.60
2019-03-31T08:47:58.627Z,13.70
2019-03-31T08:50:27.951Z,13.90
2019-03-31T08:52:57.282Z,14.10
2019-03-31T08:55:26.598Z,14.30
2019-03-31T08:57:55.948Z,14.40
2019-03-31T09:00:26.915Z,14.20
2019-03-31T09:02:56.203Z,14.40
2019-03-31T09:05:25.508Z,14.60
2019-03-31T09:07:54.850Z,14.80
2019-03-31T09:10:24.168Z,15.10
2019-03-31T09:12:53.481Z,15.20
2019-03-31T09:15:22.896Z,15.40
2019-03-31T09:17:54.235Z,15.70
2019-03-31T09:20:23.209Z,15.90
2019-03-31T09:22:52.526Z,15.90
2019-03-31T09:25:21.878Z,16.10
2019-03-31T09:27:51.274Z,16.10
2019-03-31T09:30:20.747Z,16.30
2019-03-31T09:32:51.070Z,16.40
2019-03-31T09:35:20.553Z,16.60
2019-03-31T09:37:49.891Z,16.80
2019-03-31T09:40:19.384Z,17.00
2019-03-31T09:42:48.675Z,17.20
2019-03-31T09:45:19.734Z,17.50
2019-03-31T09:47:50.059Z,17.50
2019-03-31T09:50:19.907Z,17.50
2019-03-31T09:52:49.266Z,17.70
2019-03-31T09:55:18.624Z,18.00
2019-03-31T09:57:47.968Z,18.20
2019-03-31T10:00:23.043Z,18.40
2019-03-31T10:02:52.346Z,18.50
2019-03-31T10:05:21.695Z,18.60
2019-03-31T10:07:50.992Z,18.90
2019-03-31T10:10:32.634Z,19.20
2019-03-31T10:13:01.901Z,19.40
2019-03-31T10:15:31.167Z,19.60
2019-03-31T10:18:00.470Z,19.70
2019-03-31T10:20:31.483Z,20.10
2019-03-31T10:23:01.667Z,21.50
2019-03-31T10:25:30.941Z,26.20
2019-03-31T10:28:00.216Z,29.10
2019-03-31T10:30:35.323Z,26.80
2019-03-31T10:33:05.738Z,25.10
2019-03-31T10:35:36.349Z,26.00
2019-03-31T10:38:06.049Z,27.30
2019-03-31T10:40:35.352Z,28.60
2019-03-31T10:43:04.689Z,27.80
2019-03-31T10:45:33.980Z,25.50
2019-03-31T10:48:03.442Z,25.50
2019-03-31T10:50:32.736Z,26.00
2019-03-31T10:53:02.967Z,26.90
2019-03-31T10:55:55.023Z,27.60
2019-03-31T10:58:24.315Z,27.80
2019-03-31T11:00:53.639Z,27.50
2019-03-31T11:03:22.934Z,27.10
2019-03-31T11:05:52.249Z,27.10
2019-03-31T11:08:21.567Z,27.20
2019-03-31T11:10:50.882Z,26.70
2019-03-31T11:13:20.190Z,25.90
2019-03-31T11:15:49.554Z,26.40
2019-03-31T11:18:18.870Z,26.60
2019-03-31T11:20:48.196Z,26.80
2019-03-31T11:23:22.318Z,26.70
2019-03-31T11:25:51.640Z,26.50
2019-03-31T11:28:20.994Z,26.30
2019-03-31T11:30:50.371Z,26.10
2019-03-31T11:33:20.647Z,25.80
2019-03-31T11:35:49.958Z,25.60
2019-03-31T11:38:19.318Z,25.80
2019-03-31T11:40:48.704Z,26.20
2019-03-31T11:43:17.999Z,26.10
2019-03-31T11:45:47.319Z,25.00
2019-03-31T11:48:16.619Z,25.10
2019-03-31T11:50:45.930Z,25.00
2019-03-31T11:53:15.349Z,25.00
2019-03-31T11:55:45.708Z,25.00
2019-03-31T11:58:15.055Z,24.60
2019-03-31T12:00:46.169Z,24.10
2019-03-31T12:03:15.485Z,24.40
2019-03-31T12:05:44.851Z,24.70
2019-03-31T12:08:14.155Z,24.80
2019-03-31T12:10:43.468Z,24.50
2019-03-31T12:13:12.787Z,24.10
2019-03-31T12:15:42.102Z,23.90
2019-03-31T12:18:11.424Z,24.40
2019-03-31T12:20:40.750Z,24.60
2019-03-31T12:23:10.048Z,25.20
2019-03-31T12:25:39.372Z,25.60
2019-03-31T12:28:08.663Z,26.00
2019-03-31T12:30:38.979Z,26.50
2019-03-31T12:33:08.278Z,26.30
2019-03-31T12:35:37.656Z,26.40
2019-03-31T12:38:06.958Z,25.60
2019-03-31T12:40:37.209Z,24.50
2019-03-31T12:43:06.507Z,24.20
2019-03-31T12:45:35.865Z,24.40
2019-03-31T12:48:05.419Z,24.70
2019-03-31T12:50:34.718Z,25.20
2019-03-31T12:53:04.184Z,25.60
2019-03-31T12:55:33.471Z,25.90
2019-03-31T12:58:02.864Z,26.00
2019-03-31T13:00:32.159Z,26.10
2019-03-31T13:03:01.478Z,25.60
2019-03-31T13:05:31.848Z,24.80
2019-03-31T13:08:01.158Z,25.00
2019-03-31T13:10:30.475Z,25.20
2019-03-31T13:12:59.762Z,25.30
2019-03-31T13:15:29.062Z,25.90
2019-03-31T13:17:58.391Z,26.20
2019-03-31T13:20:27.749Z,26.40
2019-03-31T13:22:57.071Z,26.60
2019-03-31T13:25:26.362Z,26.60
2019-03-31T13:27:55.771Z,26.50
2019-03-31T13:30:25.148Z,26.20
2019-03-31T13:32:55.435Z,25.30
2019-03-31T13:35:24.744Z,24.70
2019-03-31T13:37:54.075Z,24.30
2019-03-31T13:40:23.406Z,24.40
2019-03-31T13:42:52.707Z,24.00
2019-03-31T13:45:22.003Z,24.10
2019-03-31T13:47:51.314Z,24.10
2019-03-31T13:50:20.678Z,24.50
2019-03-31T13:52:49.996Z,25.10
2019-03-31T13:55:19.308Z,25.60
2019-03-31T13:57:49.623Z,25.90
2019-03-31T14:00:26.325Z,26.30
2019-03-31T14:02:55.971Z,26.30
2019-03-31T14:05:25.338Z,26.20
2019-03-31T14:07:54.638Z,25.40
2019-03-31T14:10:24.006Z,25.50
2019-03-31T14:12:53.321Z,25.70
2019-03-31T14:15:22.622Z,25.70
2019-03-31T14:17:52.031Z,25.00
2019-03-31T14:20:21.418Z,24.90
2019-03-31T14:22:50.744Z,24.80
2019-03-31T14:25:20.046Z,24.50
2019-03-31T14:27:49.931Z,24.60
2019-03-31T14:30:21.009Z,24.80
2019-03-31T14:32:50.323Z,25.00
2019-03-31T14:35:19.696Z,24.90
2019-03-31T14:37:48.996Z,25.00
2019-03-31T14:40:18.303Z,25.20
2019-03-31T14:42:47.614Z,25.30
2019-03-31T14:45:31.306Z,25.40
2019-03-31T14:48:01.571Z,25.70
2019-03-31T14:50:33.684Z,25.70
2019-03-31T14:53:03.353Z,25.40
2019-03-31T14:55:34.416Z,25.40
2019-03-31T14:58:03.927Z,25.30
2019-03-31T15:00:33.350Z,25.50
2019-03-31T15:03:02.668Z,25.40
2019-03-31T15:05:31.985Z,25.40
2019-03-31T15:08:01.298Z,25.10
2019-03-31T15:10:30.614Z,25.00
2019-03-31T15:13:00.090Z,24.60
2019-03-31T15:15:29.393Z,24.90
2019-03-31T15:17:58.711Z,25.10
2019-03-31T15:20:28.005Z,25.10
2019-03-31T15:22:57.356Z,24.60
2019-03-31T15:25:26.656Z,24.30
2019-03-31T15:27:56.038Z,24.50
2019-03-31T15:30:25.330Z,24.80
2019-03-31T15:32:54.643Z,24.80
2019-03-31T15:35:23.961Z,24.70
2019-03-31T15:37:53.329Z,24.60
2019-03-31T15:40:22.707Z,24.30
2019-03-31T15:42:52.010Z,24.10
2019-03-31T15:45:21.309Z,24.20
2019-03-31T15:47:50.622Z,24.10
2019-03-31T15:50:20.196Z,24.00
2019-03-31T15:52:49.511Z,23.70
2019-03-31T15:55:18.815Z,23.70
2019-03-31T15:57:48.126Z,23.40
2019-03-31T16:00:18.195Z,22.70
2019-03-31T16:02:47.587Z,22.30
2019-03-31T16:05:16.931Z,22.50
2019-03-31T16:07:47.276Z,22.40
2019-03-31T16:10:16.947Z,22.20
2019-03-31T16:12:46.266Z,22.00
2019-03-31T16:15:16.885Z,21.90
2019-03-31T16:17:46.194Z,21.70
2019-03-31T16:20:15.730Z,21.80
2019-03-31T16:22:45.047Z,21.70
2019-03-31T16:25:18.967Z,21.50
2019-03-31T16:27:48.267Z,21.40
2019-03-31T16:30:18.943Z,21.60
2019-03-31T16:32:48.254Z,21.70
2019-03-31T16:35:17.564Z,21.80
2019-03-31T16:37:47.944Z,21.90
2019-03-31T16:40:17.297Z,21.30
2019-03-31T16:42:46.622Z,21.40
2019-03-31T16:45:16.077Z,21.40
2019-03-31T16:47:45.396Z,21.40
2019-03-31T16:50:14.762Z,21.40
2019-03-31T16:52:44.195Z,21.40
2019-03-31T16:55:14.834Z,21.40
2019-03-31T16:57:44.171Z,21.40
2019-03-31T17:00:14.607Z,21.20
2019-03-31T17:02:43.926Z,21.20
2019-03-31T17:05:21.652Z,21.30
2019-03-31T17:07:44.578Z,21.30
2019-03-31T17:10:14.107Z,21.20
2019-03-31T17:12:43.427Z,21.20
2019-03-31T17:15:13.462Z,21.00
2019-03-31T17:17:42.814Z,21.00
2019-03-31T17:20:12.649Z,20.90
2019-03-31T17:22:41.980Z,20.90
2019-03-31T17:25:11.707Z,20.80
2019-03-31T17:27:41.123Z,20.70
2019-03-31T17:30:11.981Z,20.70
2019-03-31T17:32:42.309Z,20.60
2019-03-31T17:35:11.626Z,20.40
2019-03-31T17:37:40.926Z,20.40
2019-03-31T17:40:10.480Z,20.30
2019-03-31T17:42:39.800Z,20.20
2019-03-31T17:45:09.352Z,20.10
2019-03-31T17:47:38.634Z,19.60
2019-03-31T17:50:08.183Z,19.60
2019-03-31T17:52:37.486Z,19.40
2019-03-31T17:55:08.307Z,19.40
2019-03-31T17:57:37.602Z,19.30
2019-03-31T18:00:09.434Z,19.20
2019-03-31T18:02:38.810Z,19.10
2019-03-31T18:05:09.066Z,19.10
2019-03-31T18:07:39.502Z,19.10
2019-03-31T18:10:20.161Z,19.00
2019-03-31T18:12:40.241Z,18.90
2019-03-31T18:15:09.890Z,18.80
2019-03-31T18:17:40.255Z,18.40
2019-03-31T18:20:09.844Z,18.40
2019-03-31T18:22:39.155Z,18.40
2019-03-31T18:25:08.802Z,18.20
2019-03-31T18:27:38.188Z,18.20
2019-03-31T18:30:08.138Z,18.30
2019-03-31T18:32:37.534Z,18.30
2019-03-31T18:35:07.591Z,18.30
2019-03-31T18:37:37.029Z,18.30
2019-03-31T18:40:08.494Z,18.30
2019-03-31T18:42:37.957Z,18.20
2019-03-31T18:45:08.020Z,18.20
2019-03-31T18:47:38.297Z,18.00
2019-03-31T18:50:08.047Z,18.00
2019-03-31T18:52:37.407Z,17.90
2019-03-31T18:55:20.907Z,17.60
2019-03-31T18:58:01.129Z,17.60
2019-03-31T19:00:41.377Z,17.30
2019-03-31T19:03:12.327Z,17.30
2019-03-31T19:05:49.547Z,17.40
2019-03-31T19:08:20.499Z,17.50
2019-03-31T19:10:54.195Z,17.50
2019-03-31T19:13:27.629Z,17.40
2019-03-31T19:16:07.783Z,17.30
2019-03-31T19:18:41.467Z,17.30
2019-03-31T19:21:18.168Z,17.30
2019-03-31T19:23:49.121Z,17.20
2019-03-31T19:26:26.137Z,17.00
2019-03-31T19:28:57.227Z,17.10
2019-03-31T19:31:30.728Z,17.30
2019-03-31T19:34:15.418Z,17.30
2019-03-31T19:36:52.392Z,17.40
2019-03-31T19:39:27.136Z,17.30
2019-03-31T19:42:07.329Z,17.20
2019-03-31T19:44:44.163Z,17.00
2019-03-31T19:47:27.134Z,17.00
2019-03-31T19:50:14.925Z,17.10
2019-03-31T19:52:55.056Z,17.10
2019-03-31T19:55:26.032Z,17.10
2019-03-31T19:58:06.253Z,17.10
2019-03-31T20:00:55.762Z,17.10
2019-03-31T20:03:29.985Z,16.80
2019-03-31T20:06:17.393Z,16.90
2019-03-31T20:08:51.018Z,16.90
2019-03-31T20:11:30.562Z,16.70
2019-03-31T20:14:16.918Z,16.60
2019-03-31T20:19:48.577Z,16.00
2019-03-31T20:22:22.339Z,16.10
2019-03-31T20:24:58.851Z,15.90
2019-03-31T20:27:32.537Z,15.80
2019-03-31T20:30:03.484Z,15.90
2019-03-31T20:32:50.974Z,16.10
2019-03-31T20:35:27.837Z,16.00
2019-03-31T20:38:01.746Z,16.00
2019-03-31T20:40:35.729Z,15.90
2019-03-31T20:43:06.676Z,15.50
2019-03-31T20:45:35.976Z,15.30
2019-03-31T20:48:05.294Z,15.20
2019-03-31T20:50:34.679Z,15.30
2019-03-31T20:53:04.178Z,15.60
2019-03-31T20:55:33.514Z,15.60
2019-03-31T20:58:02.975Z,15.50
2019-03-31T21:00:32.492Z,15.50
2019-03-31T21:03:02.086Z,15.40
2019-03-31T21:05:31.584Z,15.30
2019-03-31T21:08:00.907Z,15.40
2019-03-31T21:10:30.285Z,15.40
2019-03-31T21:12:59.627Z,15.30
2019-03-31T21:15:28.953Z,15.10
2019-03-31T21:17:58.264Z,14.90
2019-03-31T21:20:27.666Z,14.80
2019-03-31T21:22:57.105Z,14.90
2019-03-31T21:25:26.603Z,14.90
2019-03-31T21:27:56.009Z,14.80
2019-03-31T21:30:25.317Z,15.00
2019-03-31T21:32:54.625Z,15.10
2019-03-31T21:35:35.879Z,14.80
2019-03-31T21:38:05.464Z,14.70
2019-03-31T21:40:34.870Z,14.80
2019-03-31T21:43:04.530Z,14.60
2019-03-31T21:45:33.985Z,14.70
2019-03-31T21:48:03.287Z,14.80
2019-03-31T21:50:32.575Z,14.70
2019-03-31T21:53:02.243Z,14.50
2019-03-31T21:55:31.635Z,14.40
2019-03-31T21:58:00.959Z,14.50
2019-03-31T22:00:50.143Z,14.30
2019-03-31T22:03:20.005Z,14.50
2019-03-31T22:05:49.434Z,14.40
2019-03-31T22:08:18.740Z,14.50
2019-03-31T22:10:48.417Z,14.40
2019-03-31T22:13:17.738Z,14.20
2019-03-31T22:15:47.061Z,14.20
2019-03-31T22:18:16.380Z,13.60
2019-03-31T22:20:47.426Z,13.70
2019-03-31T22:23:16.686Z,13.60
2019-03-31T22:25:46.060Z,13.60
2019-03-31T22:28:16.447Z,13.70
2019-03-31T22:30:45.823Z,13.70
2019-03-31T22:33:16.110Z,13.80
2019-03-31T22:35:47.062Z,13.80
2019-03-31T22:38:17.467Z,13.70
2019-03-31T22:40:46.755Z,13.50
2019-03-31T22:43:16.061Z,13.30
2019-03-31T22:45:45.394Z,13.20
2019-03-31T22:48:14.754Z,13.20
2019-03-31T22:50:44.055Z,13.30
2019-03-31T22:53:13.353Z,13.20
2019-03-31T22:55:42.667Z,13.20
2019-03-31T22:58:11.967Z,13.30
2019-03-31T23:00:41.286Z,13.40
2019-03-31T23:03:12.216Z,13.30
2019-03-31T23:05:41.530Z,13.40
2019-03-31T23:08:10.827Z,13.20
2019-03-31T23:10:40.276Z,12.80
2019-03-31T23:13:09.570Z,13.00
2019-03-31T23:15:38.959Z,13.10
2019-03-31T23:18:08.245Z,13.10
2019-03-31T23:20:37.572Z,13.10
2019-03-31T23:23:06.874Z,13.10
2019-03-31T23:25:36.452Z,13.10
2019-03-31T23:28:05.766Z,13.00
2019-03-31T23:30:35.155Z,13.00
2019-03-31T23:33:04.453Z,12.90
2019-03-31T23:35:33.743Z,12.90
2019-03-31T23:38:03.039Z,12.90
2019-03-31T23:40:32.355Z,13.00
2019-03-31T23:43:01.681Z,13.00
2019-03-31T23:45:32.486Z,12.90
2019-03-31T23:48:02.027Z,12.50
2019-03-31T23:50:31.344Z,12.30
2019-03-31T23:53:00.634Z,12.40
2019-03-31T23:55:29.955Z,12.50
2019-03-31T23:57:59.255Z,12.70
